createdAt,value
2018-09-29T00:02:15.572Z,4.57
2018-09-29T00:04:44.670Z,3.80
2018-09-29T00:07:13.699Z,4.80
2018-09-29T00:09:42.858Z,5.07
2018-09-29T00:12:11.941Z,4.60
2018-09-29T00:14:40.921Z,4.33
2018-09-29T00:17:09.879Z,5.00
2018-09-29T00:19:38.887Z,4.90
2018-09-29T00:22:07.888Z,4.83
2018-09-29T00:24:36.879Z,5.47
2018-09-29T00:27:05.982Z,4.33
2018-09-29T00:29:34.910Z,5.27
2018-09-29T00:32:04.127Z,4.37
2018-09-29T00:34:33.191Z,4.50
2018-09-29T00:37:02.238Z,4.87
2018-09-29T00:39:31.247Z,4.80
2018-09-29T00:42:00.224Z,5.53
2018-09-29T00:44:29.220Z,5.40
2018-09-29T00:46:58.328Z,4.77
2018-09-29T00:49:27.387Z,5.37
2018-09-29T00:51:56.355Z,5.40
2018-09-29T00:54:25.393Z,4.83
2018-09-29T00:56:54.391Z,5.10
2018-09-29T00:59:23.429Z,5.43
2018-09-29T01:01:52.468Z,4.73
2018-09-29T01:04:21.469Z,5.23
2018-09-29T01:06:50.616Z,5.07
2018-09-29T01:09:19.593Z,4.73
2018-09-29T01:11:48.615Z,4.60
2018-09-29T01:14:17.657Z,5.60
2018-09-29T01:16:46.723Z,5.17
2018-09-29T01:19:15.696Z,4.30
2018-09-29T01:21:44.741Z,5.00
2018-09-29T01:24:13.750Z,5.57
2018-09-29T01:26:42.841Z,9.23
2018-09-29T01:29:11.879Z,9.07
2018-09-29T01:31:41.066Z,10.50
2018-09-29T01:34:10.262Z,10.83
2018-09-29T01:36:39.414Z,13.30
2018-09-29T01:39:10.090Z,12.23
2018-09-29T01:41:39.328Z,12.10
2018-09-29T01:44:08.809Z,12.20
2018-09-29T01:46:37.848Z,10.80
2018-09-29T01:49:06.987Z,10.67
2018-09-29T01:51:36.061Z,11.90
2018-09-29T01:54:05.079Z,11.73
2018-09-29T01:56:34.068Z,10.20
2018-09-29T01:59:03.917Z,11.43
2018-09-29T02:01:32.898Z,11.43
2018-09-29T02:04:02.033Z,11.60
2018-09-29T02:06:31.418Z,12.23
2018-09-29T02:09:00.510Z,11.73
2018-09-29T02:11:29.533Z,9.03
2018-09-29T02:13:58.609Z,8.60
2018-09-29T02:16:27.595Z,9.10
2018-09-29T02:18:56.703Z,9.00
2018-09-29T02:21:25.803Z,7.73
2018-09-29T02:23:54.857Z,9.27
2018-09-29T02:26:23.829Z,8.10
2018-09-29T02:28:52.882Z,7.13
2018-09-29T02:31:21.975Z,7.80
2018-09-29T02:33:51.011Z,7.60
2018-09-29T02:36:20.126Z,6.90
2018-09-29T02:38:49.093Z,8.10
2018-09-29T02:41:18.097Z,6.97
2018-09-29T02:43:48.173Z,7.20
2018-09-29T02:46:17.578Z,7.80
2018-09-29T02:48:46.801Z,7.23
2018-09-29T02:51:16.169Z,6.40
2018-09-29T02:53:45.492Z,7.43
2018-09-29T02:56:14.722Z,5.63
2018-09-29T02:58:44.044Z,5.70
2018-09-29T03:01:14.599Z,6.37
2018-09-29T03:03:43.998Z,5.20
2018-09-29T03:06:13.388Z,5.13
2018-09-29T03:08:43.113Z,5.73
2018-09-29T03:11:12.433Z,5.47
2018-09-29T03:13:41.811Z,5.67
2018-09-29T03:16:11.056Z,5.17
2018-09-29T03:18:40.414Z,4.80
2018-09-29T03:21:09.670Z,4.20
2018-09-29T03:23:38.999Z,4.40
2018-09-29T03:26:08.326Z,4.13
2018-09-29T03:28:37.761Z,4.80
2018-09-29T03:31:07.607Z,5.00
2018-09-29T03:33:37.001Z,4.60
2018-09-29T03:36:06.491Z,4.33
2018-09-29T03:38:35.965Z,4.77
2018-09-29T03:41:05.324Z,4.83
2018-09-29T03:43:34.880Z,3.53
2018-09-29T03:46:04.433Z,3.17
2018-09-29T03:48:33.947Z,3.43
2018-09-29T03:51:03.466Z,3.10
2018-09-29T03:53:33.022Z,3.00
2018-09-29T03:56:02.409Z,3.23
2018-09-29T03:58:31.773Z,3.23
2018-09-29T04:01:01.099Z,2.73
2018-09-29T04:03:30.672Z,2.17
2018-09-29T04:06:00.574Z,3.10
2018-09-29T04:08:29.907Z,3.87
2018-09-29T04:10:59.230Z,2.97
2018-09-29T04:13:28.497Z,3.00
2018-09-29T04:15:57.844Z,3.17
2018-09-29T04:18:27.035Z,2.90
2018-09-29T04:20:56.096Z,2.17
2018-09-29T04:23:25.219Z,2.60
2018-09-29T04:25:54.463Z,2.50
2018-09-29T04:28:23.931Z,2.80
2018-09-29T04:30:53.005Z,2.30
2018-09-29T04:33:24.159Z,2.90
2018-09-29T04:35:53.654Z,2.57
2018-09-29T04:38:22.687Z,3.17
2018-09-29T04:40:51.920Z,2.73
2018-09-29T04:43:21.413Z,2.20
2018-09-29T04:45:50.546Z,2.33
2018-09-29T04:48:20.711Z,2.40
2018-09-29T04:50:50.166Z,2.10
2018-09-29T04:53:19.630Z,2.40
2018-09-29T04:55:49.158Z,2.30
2018-09-29T04:58:18.611Z,2.30
2018-09-29T05:00:47.956Z,4.93
2018-09-29T05:03:17.294Z,3.67
2018-09-29T05:05:46.610Z,2.30
2018-09-29T05:08:16.058Z,3.00
2018-09-29T05:10:45.545Z,3.23
2018-09-29T05:13:15.008Z,2.30
2018-09-29T05:15:44.309Z,2.40
2018-09-29T05:18:13.622Z,2.20
2018-09-29T05:20:42.894Z,2.40
2018-09-29T05:23:12.289Z,2.60
2018-09-29T05:25:41.332Z,2.53
2018-09-29T05:28:10.433Z,2.63
2018-09-29T05:30:39.592Z,3.67
2018-09-29T05:33:08.661Z,9.87
2018-09-29T05:35:37.676Z,12.83
2018-09-29T05:38:06.971Z,8.03
2018-09-29T05:40:36.094Z,5.27
2018-09-29T05:43:05.267Z,9.13
2018-09-29T05:45:34.412Z,7.40
2018-09-29T05:48:03.604Z,9.03
2018-09-29T05:50:32.617Z,12.63
2018-09-29T05:53:01.703Z,10.73
2018-09-29T05:55:30.730Z,4.53
2018-09-29T05:57:59.824Z,3.60
2018-09-29T06:00:29.107Z,2.60
2018-09-29T06:02:58.580Z,2.67
2018-09-29T06:05:28.237Z,2.83
2018-09-29T06:07:57.674Z,3.03
2018-09-29T06:10:27.243Z,3.00
2018-09-29T06:12:56.679Z,3.03
2018-09-29T06:15:26.471Z,2.70
2018-09-29T06:17:56.445Z,2.30
2018-09-29T06:20:25.490Z,1.53
2018-09-29T06:22:54.674Z,2.40
2018-09-29T06:25:24.219Z,2.37
2018-09-29T06:27:53.639Z,2.03
2018-09-29T06:30:22.651Z,2.00
2018-09-29T06:32:51.738Z,2.13
2018-09-29T06:35:20.907Z,2.40
2018-09-29T06:37:51.235Z,3.17
2018-09-29T06:40:20.303Z,2.33
2018-09-29T06:42:49.676Z,2.43
2018-09-29T06:45:20.898Z,2.50
2018-09-29T06:47:50.197Z,2.97
2018-09-29T06:50:19.809Z,2.57
2018-09-29T06:52:49.259Z,1.80
2018-09-29T06:55:19.912Z,2.87
2018-09-29T06:57:49.144Z,3.43
2018-09-29T07:00:19.130Z,3.10
2018-09-29T07:02:48.900Z,3.13
2018-09-29T07:05:18.294Z,3.07
2018-09-29T07:07:48.847Z,2.93
2018-09-29T07:10:20.443Z,2.30
2018-09-29T07:12:49.556Z,2.40
2018-09-29T07:15:19.074Z,2.20
2018-09-29T07:17:49.112Z,2.13
2018-09-29T07:20:18.575Z,2.17
2018-09-29T07:22:48.681Z,2.13
2018-09-29T07:25:18.043Z,2.27
2018-09-29T07:27:48.561Z,2.67
2018-09-29T07:30:17.655Z,2.20
2018-09-29T07:32:48.818Z,3.33
2018-09-29T07:35:18.325Z,2.83
2018-09-29T07:37:47.516Z,1.73
2018-09-29T07:40:17.314Z,2.03
2018-09-29T07:42:47.241Z,2.37
2018-09-29T07:45:16.765Z,2.77
2018-09-29T07:47:45.793Z,2.20
2018-09-29T07:50:15.143Z,2.57
2018-09-29T07:52:44.129Z,2.53
2018-09-29T07:55:13.522Z,2.40
2018-09-29T07:57:42.498Z,2.30
2018-09-29T08:00:12.116Z,1.90
2018-09-29T08:02:41.190Z,2.67
2018-09-29T08:05:10.241Z,2.80
2018-09-29T08:07:39.324Z,2.47
2018-09-29T08:10:08.471Z,2.80
2018-09-29T08:12:37.522Z,4.00
2018-09-29T08:15:06.737Z,2.33
2018-09-29T08:17:35.749Z,3.30
2018-09-29T08:20:04.948Z,2.93
2018-09-29T08:22:34.506Z,3.20
2018-09-29T08:25:03.623Z,2.53
2018-09-29T08:27:32.681Z,2.80
2018-09-29T08:30:01.733Z,2.67
2018-09-29T08:32:30.924Z,2.27
2018-09-29T08:34:59.960Z,2.30
2018-09-29T08:37:29.078Z,2.70
2018-09-29T08:39:58.131Z,2.60
2018-09-29T08:42:27.214Z,2.27
2018-09-29T08:44:56.252Z,2.23
2018-09-29T08:47:25.369Z,1.97
2018-09-29T08:49:54.561Z,2.77
2018-09-29T08:52:24.765Z,3.30
2018-09-29T08:54:53.745Z,2.90
2018-09-29T08:57:23.503Z,3.50
2018-09-29T08:59:54.340Z,2.20
2018-09-29T09:02:24.118Z,2.23
2018-09-29T09:04:53.600Z,3.13
2018-09-29T09:07:22.841Z,3.10
2018-09-29T09:09:52.111Z,3.87
2018-09-29T09:12:21.162Z,4.43
2018-09-29T09:14:51.895Z,2.80
2018-09-29T09:17:22.048Z,2.70
2018-09-29T09:19:51.134Z,3.40
2018-09-29T09:22:20.183Z,2.00
2018-09-29T09:24:49.357Z,3.07
2018-09-29T09:27:18.462Z,2.70
2018-09-29T09:29:47.660Z,3.00
2018-09-29T09:32:16.944Z,2.27
2018-09-29T09:34:46.114Z,2.60
2018-09-29T09:37:15.194Z,2.33
2018-09-29T09:39:44.260Z,3.63
2018-09-29T09:42:14.194Z,3.03
2018-09-29T09:44:43.208Z,2.67
2018-09-29T09:47:12.321Z,2.20
2018-09-29T09:49:41.431Z,2.53
2018-09-29T09:52:10.737Z,2.73
2018-09-29T09:54:39.845Z,3.40
2018-09-29T09:57:08.993Z,3.80
2018-09-29T09:59:38.122Z,3.10
2018-09-29T10:02:12.529Z,1.73
2018-09-29T10:04:41.598Z,3.13
2018-09-29T10:07:10.726Z,3.27
2018-09-29T10:09:39.940Z,3.00
2018-09-29T10:12:09.001Z,3.13
2018-09-29T10:14:38.094Z,2.50
2018-09-29T10:17:07.244Z,2.57
2018-09-29T10:19:36.390Z,2.87
2018-09-29T10:22:05.483Z,2.63
2018-09-29T10:24:34.996Z,5.63
2018-09-29T10:27:04.081Z,3.00
2018-09-29T10:29:34.198Z,2.27
2018-09-29T10:32:03.335Z,3.07
2018-09-29T10:34:32.377Z,2.67
2018-09-29T10:37:02.217Z,3.07
2018-09-29T10:39:31.306Z,3.20
2018-09-29T10:42:00.362Z,3.30
2018-09-29T10:44:29.431Z,2.20
2018-09-29T10:46:58.565Z,2.57
2018-09-29T10:49:27.654Z,2.80
2018-09-29T10:51:56.775Z,2.50
2018-09-29T10:54:26.674Z,3.20
2018-09-29T10:56:55.951Z,3.27
2018-09-29T10:59:25.054Z,3.30
2018-09-29T11:01:54.291Z,2.33
2018-09-29T11:04:23.305Z,2.47
2018-09-29T11:06:52.484Z,3.30
2018-09-29T11:09:21.576Z,3.03
2018-09-29T11:11:50.696Z,2.67
2018-09-29T11:14:19.863Z,3.30
2018-09-29T11:16:48.977Z,2.53
2018-09-29T11:19:18.949Z,2.17
2018-09-29T11:21:48.033Z,3.10
2018-09-29T11:24:17.086Z,2.67
2018-09-29T11:26:50.508Z,3.63
2018-09-29T11:29:19.735Z,3.00
2018-09-29T11:31:48.879Z,2.97
2018-09-29T11:34:17.901Z,3.80
2018-09-29T11:36:47.023Z,2.10
2018-09-29T11:39:16.015Z,2.83
2018-09-29T11:41:45.153Z,2.60
2018-09-29T11:44:14.455Z,2.80
2018-09-29T11:46:43.489Z,2.80
2018-09-29T11:49:12.730Z,2.60
2018-09-29T11:51:42.011Z,2.80
2018-09-29T11:54:11.102Z,2.70
2018-09-29T11:56:40.127Z,2.60
2018-09-29T11:59:09.236Z,2.43
2018-09-29T12:01:38.342Z,2.77
2018-09-29T12:04:07.424Z,3.27
2018-09-29T12:06:36.473Z,2.07
2018-09-29T12:09:09.004Z,2.60
2018-09-29T12:11:38.131Z,2.40
2018-09-29T12:14:07.221Z,2.10
2018-09-29T12:16:36.394Z,2.17
2018-09-29T12:19:05.400Z,3.00
2018-09-29T12:21:34.479Z,3.40
2018-09-29T12:24:03.509Z,2.90
2018-09-29T12:26:33.122Z,2.63
2018-09-29T12:29:02.219Z,3.27
2018-09-29T12:31:31.204Z,2.50
2018-09-29T12:34:00.296Z,1.90
2018-09-29T12:36:29.365Z,1.83
2018-09-29T12:38:58.410Z,2.63
2018-09-29T12:41:27.445Z,2.50
2018-09-29T12:43:56.520Z,2.27
2018-09-29T12:46:25.551Z,2.10
2018-09-29T12:48:54.490Z,2.20
2018-09-29T12:51:23.660Z,2.20
2018-09-29T12:53:52.792Z,2.07
2018-09-29T12:56:21.929Z,2.10
2018-09-29T12:58:51.133Z,1.90
2018-09-29T13:01:20.128Z,2.40
2018-09-29T13:03:49.189Z,2.57
2018-09-29T13:06:18.407Z,2.10
2018-09-29T13:08:47.495Z,2.20
2018-09-29T13:11:16.562Z,1.73
2018-09-29T13:13:45.670Z,2.50
2018-09-29T13:16:14.781Z,2.20
2018-09-29T13:18:43.823Z,2.83
2018-09-29T13:21:12.889Z,2.30
2018-09-29T13:23:41.981Z,2.17
2018-09-29T13:26:11.075Z,2.27
2018-09-29T13:28:40.108Z,2.20
2018-09-29T13:31:09.414Z,1.93
2018-09-29T13:33:38.583Z,2.20
2018-09-29T13:36:09.245Z,1.73
2018-09-29T13:38:38.437Z,1.90
2018-09-29T13:41:07.494Z,2.20
2018-09-29T13:43:37.208Z,1.90
2018-09-29T13:46:06.423Z,1.57
2018-09-29T13:48:35.470Z,1.50
2018-09-29T13:51:04.568Z,1.83
2018-09-29T13:53:33.759Z,2.00
2018-09-29T13:56:03.338Z,2.43
2018-09-29T13:58:32.441Z,1.77
2018-09-29T14:01:01.716Z,2.70
2018-09-29T14:03:30.915Z,2.40
2018-09-29T14:06:00.324Z,1.90
2018-09-29T14:08:29.427Z,1.50
2018-09-29T14:10:59.584Z,1.93
2018-09-29T14:13:28.570Z,2.00
2018-09-29T14:15:57.642Z,2.10
2018-09-29T14:18:26.636Z,2.10
2018-09-29T14:20:55.649Z,2.00
2018-09-29T14:23:24.670Z,2.00
2018-09-29T14:25:53.882Z,2.23
2018-09-29T14:28:23.144Z,2.03
2018-09-29T14:30:52.315Z,1.50
2018-09-29T14:33:21.413Z,1.67
2018-09-29T14:35:50.434Z,1.73
2018-09-29T14:38:19.558Z,1.80
2018-09-29T14:40:48.754Z,2.70
2018-09-29T14:43:17.841Z,2.20
2018-09-29T14:45:46.840Z,2.37
2018-09-29T14:48:17.197Z,2.30
2018-09-29T14:50:46.305Z,1.80
2018-09-29T14:53:16.045Z,1.97
2018-09-29T14:55:46.255Z,1.63
2018-09-29T14:58:15.371Z,1.70
2018-09-29T15:00:44.961Z,1.80
2018-09-29T15:03:14.237Z,2.17
2018-09-29T15:05:43.273Z,2.10
2018-09-29T15:08:13.328Z,1.80
2018-09-29T15:10:42.329Z,1.90
2018-09-29T15:13:11.452Z,2.00
2018-09-29T15:15:40.466Z,3.10
2018-09-29T15:18:10.383Z,1.80
2018-09-29T15:20:39.487Z,2.10
2018-09-29T15:23:08.549Z,2.63
2018-09-29T15:25:37.637Z,2.27
2018-09-29T15:28:07.040Z,1.93
2018-09-29T15:30:36.112Z,2.13
2018-09-29T15:33:05.219Z,1.77
2018-09-29T15:35:34.326Z,2.63
2018-09-29T15:38:03.348Z,2.20
2018-09-29T15:40:32.403Z,2.60
2018-09-29T15:43:03.496Z,1.70
2018-09-29T15:45:32.570Z,2.20
2018-09-29T15:48:01.776Z,2.60
2018-09-29T15:50:30.846Z,3.40
2018-09-29T15:52:59.995Z,7.57
2018-09-29T15:55:29.416Z,4.03
2018-09-29T15:57:58.482Z,5.03
2018-09-29T16:00:27.547Z,4.80
2018-09-29T16:02:56.611Z,8.63
2018-09-29T16:05:25.714Z,7.23
2018-09-29T16:07:54.728Z,6.17
2018-09-29T16:10:23.834Z,7.10
2018-09-29T16:12:53.037Z,2.97
2018-09-29T16:15:22.090Z,2.03
2018-09-29T16:17:51.292Z,2.30
2018-09-29T16:20:20.329Z,2.50
2018-09-29T16:22:49.367Z,1.83
2018-09-29T16:25:18.487Z,1.90
2018-09-29T16:27:47.538Z,2.37
2018-09-29T16:30:16.569Z,2.50
2018-09-29T16:32:45.799Z,2.40
2018-09-29T16:35:14.943Z,4.13
2018-09-29T16:37:44.065Z,3.03
2018-09-29T16:40:13.248Z,4.40
2018-09-29T16:42:42.324Z,5.20
2018-09-29T16:45:12.001Z,2.90
2018-09-29T16:47:41.042Z,3.60
2018-09-29T16:50:10.238Z,3.37
2018-09-29T16:52:39.269Z,3.53
2018-09-29T16:55:08.369Z,3.40
2018-09-29T16:57:37.447Z,2.63
2018-09-29T17:00:06.668Z,1.83
2018-09-29T17:02:35.684Z,1.90
2018-09-29T17:05:04.839Z,2.43
2018-09-29T17:07:33.897Z,2.10
2018-09-29T17:10:03.009Z,2.27
2018-09-29T17:12:32.340Z,2.30
2018-09-29T17:15:01.423Z,2.00
2018-09-29T17:17:30.988Z,2.50
2018-09-29T17:20:00.413Z,2.20
2018-09-29T17:22:31.346Z,2.17
2018-09-29T17:25:00.996Z,3.23
2018-09-29T17:27:30.320Z,2.93
2018-09-29T17:29:59.558Z,3.47
2018-09-29T17:32:28.994Z,6.03
2018-09-29T17:34:58.169Z,3.50
2018-09-29T17:37:27.474Z,3.93
2018-09-29T17:39:57.439Z,3.20
2018-09-29T17:42:26.712Z,2.97
2018-09-29T17:44:55.777Z,2.93
2018-09-29T17:47:24.832Z,3.07
2018-09-29T17:49:53.940Z,4.93
2018-09-29T17:52:23.296Z,4.80
2018-09-29T17:54:52.377Z,3.60
2018-09-29T17:57:21.705Z,2.60
2018-09-29T17:59:50.852Z,3.03
2018-09-29T18:02:19.938Z,5.77
2018-09-29T18:04:49.020Z,7.87
2018-09-29T18:07:18.319Z,4.30
2018-09-29T18:09:48.626Z,2.77
2018-09-29T18:12:18.628Z,4.20
2018-09-29T18:14:47.877Z,4.63
2018-09-29T18:17:16.939Z,4.07
2018-09-29T18:19:46.059Z,4.63
2018-09-29T18:22:15.802Z,3.10
2018-09-29T18:24:44.903Z,3.70
2018-09-29T18:27:13.985Z,3.40
2018-09-29T18:29:43.900Z,3.47
2018-09-29T18:32:13.118Z,2.70
2018-09-29T18:34:43.071Z,2.00
2018-09-29T18:37:12.318Z,2.77
2018-09-29T18:42:21.203Z,3.67
2018-09-29T18:44:50.283Z,2.73
2018-09-29T18:47:19.438Z,2.83
2018-09-29T18:49:48.446Z,3.10
2018-09-29T18:52:17.527Z,2.63
2018-09-29T18:54:46.707Z,2.47
2018-09-29T18:57:15.775Z,1.60
2018-09-29T18:59:45.311Z,2.30
2018-09-29T19:02:14.825Z,2.50
2018-09-29T19:04:43.898Z,3.37
2018-09-29T19:07:13.181Z,3.57
2018-09-29T19:09:42.286Z,3.10
2018-09-29T19:12:11.511Z,2.47
2018-09-29T19:14:41.217Z,2.57
2018-09-29T19:17:10.420Z,2.77
2018-09-29T19:19:39.438Z,2.10
2018-09-29T19:22:08.589Z,1.90
2018-09-29T19:24:37.635Z,2.30
2018-09-29T19:27:06.737Z,1.60
2018-09-29T19:29:35.902Z,2.03
2018-09-29T19:32:05.722Z,1.73
2018-09-29T19:34:34.819Z,2.00
2018-09-29T19:37:04.030Z,2.47
2018-09-29T19:39:33.559Z,2.70
2018-09-29T19:42:02.872Z,2.80
2018-09-29T19:44:32.387Z,1.83
2018-09-29T19:47:01.792Z,2.30
2018-09-29T19:49:31.120Z,1.77
2018-09-29T19:52:00.288Z,2.03
2018-09-29T19:54:29.492Z,2.33
2018-09-29T19:57:00.283Z,1.83
2018-09-29T19:59:29.440Z,1.83
2018-09-29T20:01:58.732Z,2.13
2018-09-29T20:04:28.948Z,2.33
2018-09-29T20:06:58.269Z,1.83
2018-09-29T20:09:28.479Z,1.97
2018-09-29T20:11:58.475Z,1.40
2018-09-29T20:14:27.553Z,1.87
2018-09-29T20:16:56.651Z,1.40
2018-09-29T20:19:25.989Z,2.50
2018-09-29T20:21:55.304Z,2.10
2018-09-29T20:24:24.402Z,2.20
2018-09-29T20:26:53.488Z,2.70
2018-09-29T20:29:22.619Z,2.47
2018-09-29T20:31:51.755Z,1.50
2018-09-29T20:34:20.802Z,2.13
2018-09-29T20:36:49.923Z,1.83
2018-09-29T20:39:19.021Z,2.57
2018-09-29T20:41:48.155Z,2.00
2018-09-29T20:44:17.263Z,1.90
2018-09-29T20:46:47.153Z,2.40
2018-09-29T20:49:16.286Z,2.20
2018-09-29T20:51:45.296Z,2.13
2018-09-29T20:54:14.632Z,1.60
2018-09-29T20:56:43.728Z,1.87
2018-09-29T20:59:12.768Z,1.70
2018-09-29T21:01:42.059Z,1.80
2018-09-29T21:04:11.105Z,2.40
2018-09-29T21:06:40.386Z,2.53
2018-09-29T21:09:09.889Z,1.87
2018-09-29T21:11:38.928Z,1.90
2018-09-29T21:14:08.058Z,1.83
2018-09-29T21:16:37.078Z,1.90
2018-09-29T21:19:06.135Z,2.70
2018-09-29T21:21:35.422Z,2.17
2018-09-29T21:24:04.526Z,2.60
2018-09-29T21:26:33.596Z,1.80
2018-09-29T21:29:02.847Z,2.40
2018-09-29T21:31:31.899Z,2.20
2018-09-29T21:34:00.893Z,1.77
2018-09-29T21:36:30.057Z,2.30
2018-09-29T21:38:59.075Z,2.23
2018-09-29T21:41:28.271Z,2.50
2018-09-29T21:43:57.329Z,1.90
2018-09-29T21:46:26.354Z,1.57
2018-09-29T21:48:56.244Z,1.70
2018-09-29T21:51:25.362Z,1.60
2018-09-29T21:53:54.717Z,1.87
2018-09-29T21:56:23.717Z,1.30
2018-09-29T21:58:52.763Z,1.20
2018-09-29T22:01:26.979Z,2.00
2018-09-29T22:03:56.032Z,2.33
2018-09-29T22:06:25.203Z,2.47
2018-09-29T22:08:54.426Z,1.93
2018-09-29T22:11:23.575Z,2.20
2018-09-29T22:13:53.137Z,2.53
2018-09-29T22:16:22.236Z,1.83
2018-09-29T22:18:51.330Z,3.30
2018-09-29T22:21:20.459Z,2.70
2018-09-29T22:23:49.433Z,2.60
2018-09-29T22:26:18.450Z,2.30
2018-09-29T22:28:47.494Z,2.83
2018-09-29T22:31:16.575Z,2.70
2018-09-29T22:33:45.769Z,2.17
2018-09-29T22:36:14.830Z,2.00
2018-09-29T22:38:43.910Z,1.73
2018-09-29T22:41:13.169Z,2.37
2018-09-29T22:43:42.257Z,1.60
2018-09-29T22:46:11.261Z,2.00
2018-09-29T22:48:40.385Z,1.70
2018-09-29T22:51:09.421Z,1.83
2018-09-29T22:53:38.406Z,1.60
2018-09-29T22:56:07.441Z,2.07
2018-09-29T22:58:36.574Z,1.80
2018-09-29T23:01:05.591Z,3.03
2018-09-29T23:03:34.643Z,1.40
2018-09-29T23:06:03.703Z,1.57
2018-09-29T23:08:32.705Z,1.47
2018-09-29T23:11:01.739Z,1.97
2018-09-29T23:13:30.867Z,1.70
2018-09-29T23:15:59.941Z,1.57
2018-09-29T23:18:28.950Z,1.90
2018-09-29T23:20:58.016Z,2.43
2018-09-29T23:23:27.162Z,1.60
2018-09-29T23:25:56.273Z,1.80
2018-09-29T23:28:25.331Z,1.50
2018-09-29T23:30:54.415Z,1.53
2018-09-29T23:33:23.433Z,1.80
2018-09-29T23:35:52.592Z,1.97
2018-09-29T23:38:21.666Z,2.40
2018-09-29T23:40:50.701Z,1.70
2018-09-29T23:43:19.883Z,1.90
2018-09-29T23:45:48.878Z,2.13
2018-09-29T23:48:17.981Z,1.50
2018-09-29T23:50:47.001Z,1.70
2018-09-29T23:53:15.961Z,1.77
2018-09-29T23:55:45.014Z,1.23
2018-09-29T23:58:14.067Z,1.90
